Meteo Giornale » Osservazioni meteo Italia » Bologna-Borgo Panigale

ore: 23:50 - Osservazioni Meteo Bologna-Borgo Panigale
Lat. 44° 32' N Lon. 11° 18' E Alt. 36 metri s.l.m.

molto_nuvoloso Europe/Rome

21 °C

Molto Nuvoloso

Temp. 24 Ore

19 °C

28 °C

Est/Nord-Est

9.3 Km/h

Dew point 18 °C

Umidità 82 %

Visibilità  10 Km

Il sole sorge alle ore 06:55

Il sole tramonta alle ore 19:21

Data e Ora Cielo e Fenomeni T °C DP °C Um. % Pres. hPa Vis. km Vento km/h
Ieri h: 23:50 molto_nuvoloso Molto Nuvoloso 21 18 82 1016 10 E/NE 9.3
Ieri h: 23:20 molto_nuvoloso Molto Nuvoloso 21 18 82 1017 10 E/NE 9.3
Ieri h: 22:50 molto_nuvoloso Molto Nuvoloso 21 18 82 1016 10 E/NE 13
Ieri h: 22:20 molto_nuvoloso Molto Nuvoloso 21 18 82 1016 10 E/NE 14.8
Ieri h: 21:50 molto_nuvoloso Molto Nuvoloso 21 18 82 1016 10 E/NE 13
Ieri h: 21:20 molto_nuvoloso Molto Nuvoloso 21 18 82 1016 10 E/NE 13
Ieri h: 20:50 coperto_pioggia Pioggia Debole 21 19 88 1016 10 E/NE 13
Ieri h: 20:20 nuvoloso Nuvoloso 22 18 78 1015 10 E 14.8
Ieri h: 19:50 coperto_pioggia Pioggia Debole 22 19 83 1015 10 E/NE 14.8
Ieri h: 19:20 coperto_pioggia Pioggia Debole 22 19 83 1015 10 E/NE 18.5
Ieri h: 18:50 nuvoloso Nuvoloso 24 19 73 1014 10 E 14.8
Ieri h: 18:20 nuvoloso Nuvoloso 25 19 69 1014 10 E 20.3
Ieri h: 17:50 nuvoloso Nuvoloso 26 19 65 1014 10 E 20.3
Ieri h: 17:20 nuvoloso Nuvoloso 26 19 65 1014 10 E/NE 16.7
Ieri h: 16:50 nuvoloso Nuvoloso 25 20 73 1014 10 NE 18.5
Ieri h: 16:20 molto_nuvoloso Molto Nuvoloso 25 20 73 1014 10 N/NE 16.7
Ieri h: 15:50 molto_nuvoloso Molto Nuvoloso 28 19 58 1014 10 E 13
Ieri h: 15:20 nuvoloso Nuvoloso 28 17 51 1014 10 N 5.5
Ieri h: 14:50 nuvoloso Nuvoloso 28 18 54 1014 7 N 3.7
Ieri h: 14:20 nuvoloso Nuvoloso 27 17 54 1014 7 N 5.5
Ieri h: 13:50 nuvoloso Nuvoloso 27 18 57 1015 7 N 5.5
Ieri h: 13:20 nuvoloso Nuvoloso 26 19 65 1015 7 N 5.5
Ieri h: 12:50 nuvoloso Nuvoloso 25 18 65 1015 7 O/NO 7.4
Ieri h: 12:20 nuvoloso Nuvoloso 25 17 61 1015 7 O 7.4
Ieri h: 11:50 nuvoloso Nuvoloso 24 17 64 1015 8 O/NO 9.3
Ieri h: 11:20 sereno Sereno 25 18 65 1015 10 NO 11.1
Ieri h: 10:50 sereno Sereno 24 17 64 1015 10 O/NO 11.1
Ieri h: 10:20 sereno Sereno 24 16 60 1015 10 O 14.8
Ieri h: 09:50 sereno Sereno 23 15 60 1015 10 O 14.8
Ieri h: 09:20 poco_nuvoloso Poco Nuvoloso 23 16 64 1015 10 O 11.1
Ieri h: 08:20 poco_nuvoloso Poco Nuvoloso 21 15 68 1014 10 SO 9.3
Ieri h: 07:50 poco_nuvoloso Poco Nuvoloso 20 15 72 1014 10 SO 9.3
Ieri h: 07:20 poco_nuvoloso Poco Nuvoloso 19 15 77 1014 10 SO 7.4
Ieri h: 06:50 poco_nuvoloso Poco Nuvoloso 20 15 72 1014 10 SO 9.3
Ieri h: 06:20 nuvoloso Nuvoloso 19 16 82 1013 10 N 5.5
Ieri h: 05:50 molto_nuvoloso Molto Nuvoloso 20 15 72 1013 10 O/SO 7.4
Ieri h: 05:20 molto_nuvoloso Molto Nuvoloso 21 15 68 1013 10 N 3.7
Ieri h: 04:50 sereno Sereno 21 15 68 1013 10 N 5.5
Ieri h: 04:20 sereno Sereno 21 15 68 1013 10 N 5.5
Ieri h: 03:50 sereno Sereno 21 15 68 1013 10 N 3.7
Ieri h: 03:20 sereno Sereno 21 16 73 1013 10 N 5.5
Ieri h: 02:50 sereno Sereno 21 16 73 1013 10 SO 7.4
Ieri h: 02:20 sereno Sereno 22 17 73 1013 10 SO 7.4
Ieri h: 01:50 sereno Sereno 22 17 73 1013 10 S/SO 9.3
Ieri h: 01:20 sereno Sereno 23 16 64 1013 10 S/SO 11.1
Ieri h: 00:50 sereno Sereno 23 16 64 1013 10 S/SO 13